sensor_id;sensor_type;location;lat;lon;timestamp;P1;durP1;ratioP1;P2;durP2;ratioP2
10452;SDS011;5274;51.992;8.518;2023-06-19T00:02:07;57.33;;;54.03;;
10452;SDS011;5274;51.992;8.518;2023-06-19T00:04:33;57.83;;;54.42;;
10452;SDS011;5274;51.992;8.518;2023-06-19T00:06:59;56.83;;;53.55;;
10452;SDS011;5274;51.992;8.518;2023-06-19T00:09:26;56.90;;;53.70;;
10452;SDS011;5274;51.992;8.518;2023-06-19T00:11:52;56.70;;;53.40;;
10452;SDS011;5274;51.992;8.518;2023-06-19T00:14:18;56.95;;;53.55;;
10452;SDS011;5274;51.992;8.518;2023-06-19T00:16:44;56.10;;;52.70;;
10452;SDS011;5274;51.992;8.518;2023-06-19T00:19:10;55.63;;;52.42;;
10452;SDS011;5274;51.992;8.518;2023-06-19T00:21:37;56.78;;;53.58;;
10452;SDS011;5274;51.992;8.518;2023-06-19T00:24:03;56.88;;;53.58;;
10452;SDS011;5274;51.992;8.518;2023-06-19T00:26:29;60.08;;;56.47;;
10452;SDS011;5274;51.992;8.518;2023-06-19T00:28:55;61.55;;;57.97;;
10452;SDS011;5274;51.992;8.518;2023-06-19T00:31:21;61.00;;;57.50;;
10452;SDS011;5274;51.992;8.518;2023-06-19T00:33:47;61.63;;;58.13;;
10452;SDS011;5274;51.992;8.518;2023-06-19T00:36:14;59.95;;;56.50;;
10452;SDS011;5274;51.992;8.518;2023-06-19T00:38:40;54.80;;;51.55;;
10452;SDS011;5274;51.992;8.518;2023-06-19T00:41:07;42.40;;;39.90;;
10452;SDS011;5274;51.992;8.518;2023-06-19T00:43:33;43.50;;;41.10;;
10452;SDS011;5274;51.992;8.518;2023-06-19T00:45:59;46.42;;;43.92;;
10452;SDS011;5274;51.992;8.518;2023-06-19T00:48:26;41.83;;;39.53;;
10452;SDS011;5274;51.992;8.518;2023-06-19T00:50:53;42.72;;;40.53;;
10452;SDS011;5274;51.992;8.518;2023-06-19T00:53:19;42.75;;;40.35;;
10452;SDS011;5274;51.992;8.518;2023-06-19T00:55:46;42.15;;;39.85;;
10452;SDS011;5274;51.992;8.518;2023-06-19T00:58:13;41.83;;;39.45;;
10452;SDS011;5274;51.992;8.518;2023-06-19T01:00:39;42.97;;;40.65;;
10452;SDS011;5274;51.992;8.518;2023-06-19T01:03:05;43.58;;;40.95;;
10452;SDS011;5274;51.992;8.518;2023-06-19T01:05:31;46.88;;;44.28;;
10452;SDS011;5274;51.992;8.518;2023-06-19T01:07:59;44.22;;;41.47;;
10452;SDS011;5274;51.992;8.518;2023-06-19T01:10:31;46.05;;;43.53;;
10452;SDS011;5274;51.992;8.518;2023-06-19T01:13:08;43.92;;;41.60;;
10452;SDS011;5274;51.992;8.518;2023-06-19T01:15:36;46.08;;;43.63;;
10452;SDS011;5274;51.992;8.518;2023-06-19T01:18:03;43.00;;;40.40;;
10452;SDS011;5274;51.992;8.518;2023-06-19T01:20:29;41.47;;;39.17;;
10452;SDS011;5274;51.992;8.518;2023-06-19T01:22:56;38.75;;;36.25;;
10452;SDS011;5274;51.992;8.518;2023-06-19T01:25:25;44.17;;;41.67;;
10452;SDS011;5274;51.992;8.518;2023-06-19T01:27:51;42.35;;;39.92;;
10452;SDS011;5274;51.992;8.518;2023-06-19T01:30:17;44.13;;;41.72;;
10452;SDS011;5274;51.992;8.518;2023-06-19T01:35:16;43.45;;;41.15;;
10452;SDS011;5274;51.992;8.518;2023-06-19T01:37:43;45.03;;;42.38;;
10452;SDS011;5274;51.992;8.518;2023-06-19T01:40:09;39.53;;;37.38;;
10452;SDS011;5274;51.992;8.518;2023-06-19T01:42:40;40.88;;;38.55;;
10452;SDS011;5274;51.992;8.518;2023-06-19T01:45:06;42.60;;;40.20;;
10452;SDS011;5274;51.992;8.518;2023-06-19T01:47:32;42.95;;;40.47;;
10452;SDS011;5274;51.992;8.518;2023-06-19T01:49:59;41.78;;;39.47;;
10452;SDS011;5274;51.992;8.518;2023-06-19T01:52:25;42.45;;;40.08;;
10452;SDS011;5274;51.992;8.518;2023-06-19T01:54:51;41.17;;;38.95;;
10452;SDS011;5274;51.992;8.518;2023-06-19T01:57:17;43.17;;;40.80;;
10452;SDS011;5274;51.992;8.518;2023-06-19T01:59:43;38.35;;;36.10;;
10452;SDS011;5274;51.992;8.518;2023-06-19T02:02:09;40.90;;;38.55;;
10452;SDS011;5274;51.992;8.518;2023-06-19T02:04:36;41.05;;;38.67;;
10452;SDS011;5274;51.992;8.518;2023-06-19T02:07:01;40.38;;;38.08;;
10452;SDS011;5274;51.992;8.518;2023-06-19T02:09:27;44.78;;;42.33;;
10452;SDS011;5274;51.992;8.518;2023-06-19T02:11:53;47.20;;;44.50;;
10452;SDS011;5274;51.992;8.518;2023-06-19T02:14:19;44.13;;;41.42;;
10452;SDS011;5274;51.992;8.518;2023-06-19T02:16:45;41.28;;;39.00;;
10452;SDS011;5274;51.992;8.518;2023-06-19T02:19:11;42.55;;;40.25;;
10452;SDS011;5274;51.992;8.518;2023-06-19T02:21:37;39.65;;;37.38;;
10452;SDS011;5274;51.992;8.518;2023-06-19T02:24:03;35.72;;;33.72;;
10452;SDS011;5274;51.992;8.518;2023-06-19T02:26:30;38.53;;;36.33;;
10452;SDS011;5274;51.992;8.518;2023-06-19T02:28:56;40.08;;;37.67;;
10452;SDS011;5274;51.992;8.518;2023-06-19T02:31:22;43.40;;;40.90;;
10452;SDS011;5274;51.992;8.518;2023-06-19T02:33:48;39.75;;;37.45;;
10452;SDS011;5274;51.992;8.518;2023-06-19T02:36:14;42.05;;;39.80;;
10452;SDS011;5274;51.992;8.518;2023-06-19T02:38:44;40.38;;;38.17;;
10452;SDS011;5274;51.992;8.518;2023-06-19T02:41:10;42.75;;;40.22;;
10452;SDS011;5274;51.992;8.518;2023-06-19T02:43:36;39.97;;;37.67;;
10452;SDS011;5274;51.992;8.518;2023-06-19T02:46:02;41.22;;;38.88;;
10452;SDS011;5274;51.992;8.518;2023-06-19T02:48:28;41.40;;;39.03;;
10452;SDS011;5274;51.992;8.518;2023-06-19T02:50:54;39.58;;;37.22;;
10452;SDS011;5274;51.992;8.518;2023-06-19T02:53:20;37.33;;;35.22;;
10452;SDS011;5274;51.992;8.518;2023-06-19T02:55:46;36.15;;;34.10;;
10452;SDS011;5274;51.992;8.518;2023-06-19T02:58:12;37.58;;;35.47;;
10452;SDS011;5274;51.992;8.518;2023-06-19T03:00:37;37.85;;;35.70;;
10452;SDS011;5274;51.992;8.518;2023-06-19T03:03:04;40.38;;;38.10;;
10452;SDS011;5274;51.992;8.518;2023-06-19T03:05:30;39.50;;;37.22;;
10452;SDS011;5274;51.992;8.518;2023-06-19T03:07:56;36.10;;;34.00;;
10452;SDS011;5274;51.992;8.518;2023-06-19T03:10:22;41.83;;;39.42;;
10452;SDS011;5274;51.992;8.518;2023-06-19T03:12:48;36.88;;;34.67;;
10452;SDS011;5274;51.992;8.518;2023-06-19T03:15:14;39.58;;;37.38;;
10452;SDS011;5274;51.992;8.518;2023-06-19T03:17:40;39.85;;;37.63;;
10452;SDS011;5274;51.992;8.518;2023-06-19T03:20:06;42.55;;;40.08;;
10452;SDS011;5274;51.992;8.518;2023-06-19T03:22:36;46.22;;;43.78;;
10452;SDS011;5274;51.992;8.518;2023-06-19T03:25:02;54.15;;;51.05;;
10452;SDS011;5274;51.992;8.518;2023-06-19T03:27:28;54.80;;;51.63;;
10452;SDS011;5274;51.992;8.518;2023-06-19T03:29:55;54.13;;;50.92;;
10452;SDS011;5274;51.992;8.518;2023-06-19T03:32:21;52.88;;;49.72;;
10452;SDS011;5274;51.992;8.518;2023-06-19T03:34:47;53.28;;;49.70;;
10452;SDS011;5274;51.992;8.518;2023-06-19T03:37:13;51.38;;;48.28;;
10452;SDS011;5274;51.992;8.518;2023-06-19T03:39:39;58.33;;;54.33;;
10452;SDS011;5274;51.992;8.518;2023-06-19T03:42:05;59.65;;;55.35;;
10452;SDS011;5274;51.992;8.518;2023-06-19T03:44:31;59.72;;;55.38;;
10452;SDS011;5274;51.992;8.518;2023-06-19T03:46:57;59.67;;;55.38;;
10452;SDS011;5274;51.992;8.518;2023-06-19T03:49:22;60.38;;;56.08;;
10452;SDS011;5274;51.992;8.518;2023-06-19T03:51:48;59.45;;;55.25;;
10452;SDS011;5274;51.992;8.518;2023-06-19T03:54:14;59.88;;;55.63;;
10452;SDS011;5274;51.992;8.518;2023-06-19T03:56:40;62.53;;;57.67;;
10452;SDS011;5274;51.992;8.518;2023-06-19T03:59:06;61.33;;;57.03;;
10452;SDS011;5274;51.992;8.518;2023-06-19T04:01:32;61.78;;;57.30;;
10452;SDS011;5274;51.992;8.518;2023-06-19T04:03:58;62.90;;;58.60;;
10452;SDS011;5274;51.992;8.518;2023-06-19T04:06:24;63.70;;;58.80;;
10452;SDS011;5274;51.992;8.518;2023-06-19T04:08:50;63.28;;;58.33;;
10452;SDS011;5274;51.992;8.518;2023-06-19T04:11:16;61.90;;;57.40;;
10452;SDS011;5274;51.992;8.518;2023-06-19T04:13:42;60.28;;;55.92;;
10452;SDS011;5274;51.992;8.518;2023-06-19T04:16:07;59.30;;;54.88;;
10452;SDS011;5274;51.992;8.518;2023-06-19T04:18:33;61.33;;;56.72;;
10452;SDS011;5274;51.992;8.518;2023-06-19T04:21:00;59.90;;;55.78;;
10452;SDS011;5274;51.992;8.518;2023-06-19T04:23:26;60.05;;;55.75;;
10452;SDS011;5274;51.992;8.518;2023-06-19T04:25:51;58.25;;;54.15;;
10452;SDS011;5274;51.992;8.518;2023-06-19T04:28:17;61.60;;;57.22;;
10452;SDS011;5274;51.992;8.518;2023-06-19T04:30:43;61.95;;;57.53;;
10452;SDS011;5274;51.992;8.518;2023-06-19T04:33:09;61.42;;;56.63;;
10452;SDS011;5274;51.992;8.518;2023-06-19T04:35:35;61.53;;;56.92;;
10452;SDS011;5274;51.992;8.518;2023-06-19T04:38:07;61.88;;;57.30;;
10452;SDS011;5274;51.992;8.518;2023-06-19T04:40:34;60.25;;;55.83;;
10452;SDS011;5274;51.992;8.518;2023-06-19T04:43:01;61.42;;;57.13;;
10452;SDS011;5274;51.992;8.518;2023-06-19T04:45:27;60.65;;;56.42;;
10452;SDS011;5274;51.992;8.518;2023-06-19T04:47:53;62.13;;;57.72;;
10452;SDS011;5274;51.992;8.518;2023-06-19T04:50:20;61.47;;;56.75;;
10452;SDS011;5274;51.992;8.518;2023-06-19T04:52:46;60.33;;;55.83;;
10452;SDS011;5274;51.992;8.518;2023-06-19T04:55:15;59.28;;;55.00;;
10452;SDS011;5274;51.992;8.518;2023-06-19T04:57:41;50.65;;;47.25;;
10452;SDS011;5274;51.992;8.518;2023-06-19T05:00:07;50.85;;;47.67;;
10452;SDS011;5274;51.992;8.518;2023-06-19T05:02:35;49.38;;;46.35;;
10452;SDS011;5274;51.992;8.518;2023-06-19T05:05:01;54.25;;;50.70;;
10452;SDS011;5274;51.992;8.518;2023-06-19T05:07:27;46.28;;;42.95;;
10452;SDS011;5274;51.992;8.518;2023-06-19T05:09:53;53.25;;;49.83;;
10452;SDS011;5274;51.992;8.518;2023-06-19T05:12:19;57.53;;;53.40;;
10452;SDS011;5274;51.992;8.518;2023-06-19T05:14:45;48.15;;;45.17;;
10452;SDS011;5274;51.992;8.518;2023-06-19T05:17:10;52.03;;;48.25;;
10452;SDS011;5274;51.992;8.518;2023-06-19T05:19:36;50.35;;;46.83;;
10452;SDS011;5274;51.992;8.518;2023-06-19T05:22:02;51.65;;;48.35;;
10452;SDS011;5274;51.992;8.518;2023-06-19T05:24:28;51.35;;;48.22;;
10452;SDS011;5274;51.992;8.518;2023-06-19T05:26:54;51.13;;;47.85;;
10452;SDS011;5274;51.992;8.518;2023-06-19T05:29:20;50.80;;;47.40;;
10452;SDS011;5274;51.992;8.518;2023-06-19T05:31:46;48.05;;;44.97;;
10452;SDS011;5274;51.992;8.518;2023-06-19T05:34:12;50.42;;;47.03;;
10452;SDS011;5274;51.992;8.518;2023-06-19T05:36:38;47.90;;;44.60;;
10452;SDS011;5274;51.992;8.518;2023-06-19T05:39:04;49.03;;;45.58;;
10452;SDS011;5274;51.992;8.518;2023-06-19T05:41:30;51.75;;;47.75;;
10452;SDS011;5274;51.992;8.518;2023-06-19T05:43:56;51.03;;;47.92;;
10452;SDS011;5274;51.992;8.518;2023-06-19T05:46:22;53.03;;;49.63;;
10452;SDS011;5274;51.992;8.518;2023-06-19T05:48:48;47.15;;;44.25;;
10452;SDS011;5274;51.992;8.518;2023-06-19T05:51:14;49.08;;;46.17;;
10452;SDS011;5274;51.992;8.518;2023-06-19T05:53:40;53.10;;;49.83;;
10452;SDS011;5274;51.992;8.518;2023-06-19T05:56:06;51.58;;;48.42;;
10452;SDS011;5274;51.992;8.518;2023-06-19T05:58:32;49.75;;;46.72;;
10452;SDS011;5274;51.992;8.518;2023-06-19T06:00:58;45.13;;;42.45;;
10452;SDS011;5274;51.992;8.518;2023-06-19T06:03:24;44.78;;;41.83;;
10452;SDS011;5274;51.992;8.518;2023-06-19T06:05:50;51.22;;;48.15;;
10452;SDS011;5274;51.992;8.518;2023-06-19T06:08:16;51.50;;;48.28;;
10452;SDS011;5274;51.992;8.518;2023-06-19T06:10:42;49.78;;;46.45;;
10452;SDS011;5274;51.992;8.518;2023-06-19T06:13:08;50.53;;;47.10;;
10452;SDS011;5274;51.992;8.518;2023-06-19T06:15:34;48.10;;;45.30;;
10452;SDS011;5274;51.992;8.518;2023-06-19T06:18:00;51.88;;;48.50;;
10452;SDS011;5274;51.992;8.518;2023-06-19T06:20:28;51.67;;;48.47;;
10452;SDS011;5274;51.992;8.518;2023-06-19T06:22:54;50.03;;;46.92;;
10452;SDS011;5274;51.992;8.518;2023-06-19T06:25:20;51.05;;;47.70;;
10452;SDS011;5274;51.992;8.518;2023-06-19T06:27:46;49.42;;;46.33;;
10452;SDS011;5274;51.992;8.518;2023-06-19T06:30:12;51.17;;;48.00;;
10452;SDS011;5274;51.992;8.518;2023-06-19T06:32:38;45.58;;;42.97;;
10452;SDS011;5274;51.992;8.518;2023-06-19T06:35:04;47.85;;;44.38;;
10452;SDS011;5274;51.992;8.518;2023-06-19T06:37:30;43.65;;;41.00;;
10452;SDS011;5274;51.992;8.518;2023-06-19T06:39:56;41.92;;;39.38;;
10452;SDS011;5274;51.992;8.518;2023-06-19T06:42:22;45.33;;;42.47;;
10452;SDS011;5274;51.992;8.518;2023-06-19T06:44:48;44.75;;;41.88;;
10452;SDS011;5274;51.992;8.518;2023-06-19T06:47:14;47.38;;;44.20;;
10452;SDS011;5274;51.992;8.518;2023-06-19T06:49:39;46.58;;;43.88;;
10452;SDS011;5274;51.992;8.518;2023-06-19T06:52:06;45.67;;;43.08;;
10452;SDS011;5274;51.992;8.518;2023-06-19T06:54:32;47.65;;;44.65;;
10452;SDS011;5274;51.992;8.518;2023-06-19T06:56:58;42.95;;;40.10;;
10452;SDS011;5274;51.992;8.518;2023-06-19T06:59:25;40.90;;;38.55;;
10452;SDS011;5274;51.992;8.518;2023-06-19T07:01:51;45.20;;;42.63;;
10452;SDS011;5274;51.992;8.518;2023-06-19T07:04:17;45.33;;;42.35;;
10452;SDS011;5274;51.992;8.518;2023-06-19T07:06:43;43.47;;;41.00;;
10452;SDS011;5274;51.992;8.518;2023-06-19T07:09:09;47.05;;;44.00;;
10452;SDS011;5274;51.992;8.518;2023-06-19T07:11:35;45.50;;;42.65;;
10452;SDS011;5274;51.992;8.518;2023-06-19T07:14:01;43.92;;;41.40;;
10452;SDS011;5274;51.992;8.518;2023-06-19T07:16:27;43.10;;;40.60;;
10452;SDS011;5274;51.992;8.518;2023-06-19T07:18:54;48.58;;;45.60;;
10452;SDS011;5274;51.992;8.518;2023-06-19T07:21:19;46.90;;;44.22;;
10452;SDS011;5274;51.992;8.518;2023-06-19T07:23:45;46.15;;;43.03;;
10452;SDS011;5274;51.992;8.518;2023-06-19T07:26:15;36.78;;;34.80;;
10452;SDS011;5274;51.992;8.518;2023-06-19T07:28:41;49.75;;;46.53;;
10452;SDS011;5274;51.992;8.518;2023-06-19T07:31:07;48.90;;;46.00;;
10452;SDS011;5274;51.992;8.518;2023-06-19T07:33:33;44.42;;;41.75;;
10452;SDS011;5274;51.992;8.518;2023-06-19T07:36:00;47.85;;;44.85;;
10452;SDS011;5274;51.992;8.518;2023-06-19T07:38:27;43.92;;;41.38;;
10452;SDS011;5274;51.992;8.518;2023-06-19T07:40:53;46.53;;;43.35;;
10452;SDS011;5274;51.992;8.518;2023-06-19T07:43:19;43.08;;;40.67;;
10452;SDS011;5274;51.992;8.518;2023-06-19T07:45:47;44.58;;;41.88;;
10452;SDS011;5274;51.992;8.518;2023-06-19T07:48:13;44.10;;;41.58;;
10452;SDS011;5274;51.992;8.518;2023-06-19T07:50:39;44.55;;;42.03;;
10452;SDS011;5274;51.992;8.518;2023-06-19T07:53:05;46.10;;;43.35;;
10452;SDS011;5274;51.992;8.518;2023-06-19T07:55:31;43.35;;;40.92;;
10452;SDS011;5274;51.992;8.518;2023-06-19T07:57:57;47.80;;;44.92;;
10452;SDS011;5274;51.992;8.518;2023-06-19T08:00:26;46.88;;;43.97;;
10452;SDS011;5274;51.992;8.518;2023-06-19T08:02:52;45.55;;;42.95;;
10452;SDS011;5274;51.992;8.518;2023-06-19T08:05:18;45.97;;;43.38;;
10452;SDS011;5274;51.992;8.518;2023-06-19T08:07:44;42.67;;;40.28;;
10452;SDS011;5274;51.992;8.518;2023-06-19T08:10:10;42.60;;;40.20;;
10452;SDS011;5274;51.992;8.518;2023-06-19T08:12:36;43.65;;;40.83;;
10452;SDS011;5274;51.992;8.518;2023-06-19T08:15:01;43.03;;;40.58;;
10452;SDS011;5274;51.992;8.518;2023-06-19T08:17:28;43.65;;;41.05;;
10452;SDS011;5274;51.992;8.518;2023-06-19T08:19:53;46.97;;;44.30;;
10452;SDS011;5274;51.992;8.518;2023-06-19T08:22:19;43.22;;;40.67;;
10452;SDS011;5274;51.992;8.518;2023-06-19T08:24:46;44.13;;;41.45;;
10452;SDS011;5274;51.992;8.518;2023-06-19T08:27:12;44.13;;;41.42;;
10452;SDS011;5274;51.992;8.518;2023-06-19T08:29:39;45.28;;;42.50;;
10452;SDS011;5274;51.992;8.518;2023-06-19T08:32:04;48.90;;;45.95;;
10452;SDS011;5274;51.992;8.518;2023-06-19T08:34:30;44.50;;;41.90;;
10452;SDS011;5274;51.992;8.518;2023-06-19T08:36:56;44.90;;;42.30;;
10452;SDS011;5274;51.992;8.518;2023-06-19T08:39:22;43.72;;;41.20;;
10452;SDS011;5274;51.992;8.518;2023-06-19T08:41:48;46.20;;;43.40;;
10452;SDS011;5274;51.992;8.518;2023-06-19T08:44:14;44.80;;;42.17;;
10452;SDS011;5274;51.992;8.518;2023-06-19T08:46:40;45.22;;;42.53;;
10452;SDS011;5274;51.992;8.518;2023-06-19T08:49:07;43.92;;;41.20;;
10452;SDS011;5274;51.992;8.518;2023-06-19T08:51:35;45.17;;;42.58;;
10452;SDS011;5274;51.992;8.518;2023-06-19T08:54:03;48.47;;;44.72;;
10452;SDS011;5274;51.992;8.518;2023-06-19T08:56:29;45.10;;;42.25;;
10452;SDS011;5274;51.992;8.518;2023-06-19T08:59:17;45.72;;;43.13;;
10452;SDS011;5274;51.992;8.518;2023-06-19T09:01:47;46.40;;;43.70;;
10452;SDS011;5274;51.992;8.518;2023-06-19T09:04:17;48.78;;;45.78;;
10452;SDS011;5274;51.992;8.518;2023-06-19T09:06:48;46.38;;;43.65;;
10452;SDS011;5274;51.992;8.518;2023-06-19T09:09:14;47.20;;;44.17;;
10452;SDS011;5274;51.992;8.518;2023-06-19T09:11:40;46.22;;;43.38;;
10452;SDS011;5274;51.992;8.518;2023-06-19T09:14:10;47.83;;;44.95;;
10452;SDS011;5274;51.992;8.518;2023-06-19T09:16:39;46.53;;;43.80;;
10452;SDS011;5274;51.992;8.518;2023-06-19T09:19:05;48.92;;;46.03;;
10452;SDS011;5274;51.992;8.518;2023-06-19T09:21:31;50.08;;;46.83;;
10452;SDS011;5274;51.992;8.518;2023-06-19T09:24:06;45.67;;;42.97;;
10452;SDS011;5274;51.992;8.518;2023-06-19T09:26:33;45.30;;;42.40;;
10452;SDS011;5274;51.992;8.518;2023-06-19T09:29:15;44.47;;;41.80;;
10452;SDS011;5274;51.992;8.518;2023-06-19T09:31:43;47.78;;;44.78;;
10452;SDS011;5274;51.992;8.518;2023-06-19T09:34:08;45.80;;;42.83;;
10452;SDS011;5274;51.992;8.518;2023-06-19T09:36:35;44.53;;;41.47;;
10452;SDS011;5274;51.992;8.518;2023-06-19T09:39:04;45.97;;;42.65;;
10452;SDS011;5274;51.992;8.518;2023-06-19T09:41:30;43.33;;;40.72;;
10452;SDS011;5274;51.992;8.518;2023-06-19T09:43:56;41.58;;;39.00;;
10452;SDS011;5274;51.992;8.518;2023-06-19T09:46:26;46.15;;;43.45;;
10452;SDS011;5274;51.992;8.518;2023-06-19T09:48:52;41.05;;;38.65;;
10452;SDS011;5274;51.992;8.518;2023-06-19T09:51:32;42.95;;;40.35;;
10452;SDS011;5274;51.992;8.518;2023-06-19T09:53:59;43.50;;;41.00;;
10452;SDS011;5274;51.992;8.518;2023-06-19T09:56:27;47.67;;;44.65;;
10452;SDS011;5274;51.992;8.518;2023-06-19T09:58:53;48.15;;;45.10;;
10452;SDS011;5274;51.992;8.518;2023-06-19T10:01:20;47.60;;;44.25;;
10452;SDS011;5274;51.992;8.518;2023-06-19T10:03:46;51.03;;;47.80;;
10452;SDS011;5274;51.992;8.518;2023-06-19T10:06:13;45.13;;;42.28;;
10452;SDS011;5274;51.992;8.518;2023-06-19T10:08:41;47.72;;;44.88;;
10452;SDS011;5274;51.992;8.518;2023-06-19T10:11:07;47.97;;;44.80;;
10452;SDS011;5274;51.992;8.518;2023-06-19T10:13:37;50.00;;;46.88;;
10452;SDS011;5274;51.992;8.518;2023-06-19T10:16:03;48.63;;;45.78;;
10452;SDS011;5274;51.992;8.518;2023-06-19T10:18:31;44.90;;;42.30;;
10452;SDS011;5274;51.992;8.518;2023-06-19T10:20:57;48.03;;;44.92;;
10452;SDS011;5274;51.992;8.518;2023-06-19T10:23:24;46.83;;;44.03;;
10452;SDS011;5274;51.992;8.518;2023-06-19T10:25:55;46.15;;;43.45;;
10452;SDS011;5274;51.992;8.518;2023-06-19T10:28:22;43.53;;;41.03;;
10452;SDS011;5274;51.992;8.518;2023-06-19T10:30:58;45.97;;;43.28;;
10452;SDS011;5274;51.992;8.518;2023-06-19T10:33:26;42.08;;;39.67;;
10452;SDS011;5274;51.992;8.518;2023-06-19T10:35:52;43.13;;;40.65;;
10452;SDS011;5274;51.992;8.518;2023-06-19T10:38:18;49.83;;;46.92;;
10452;SDS011;5274;51.992;8.518;2023-06-19T10:40:44;47.88;;;44.78;;
10452;SDS011;5274;51.992;8.518;2023-06-19T10:43:11;47.90;;;45.05;;
10452;SDS011;5274;51.992;8.518;2023-06-19T10:45:37;47.08;;;44.13;;
10452;SDS011;5274;51.992;8.518;2023-06-19T10:48:03;46.13;;;43.30;;
10452;SDS011;5274;51.992;8.518;2023-06-19T10:50:33;47.00;;;44.00;;
10452;SDS011;5274;51.992;8.518;2023-06-19T10:53:00;48.70;;;45.92;;
10452;SDS011;5274;51.992;8.518;2023-06-19T10:55:26;49.60;;;46.63;;
10452;SDS011;5274;51.992;8.518;2023-06-19T10:57:52;44.35;;;41.65;;
10452;SDS011;5274;51.992;8.518;2023-06-19T11:00:25;48.88;;;46.08;;
10452;SDS011;5274;51.992;8.518;2023-06-19T11:02:51;49.28;;;46.20;;
10452;SDS011;5274;51.992;8.518;2023-06-19T11:05:19;51.05;;;48.05;;
10452;SDS011;5274;51.992;8.518;2023-06-19T11:07:50;49.88;;;46.85;;
10452;SDS011;5274;51.992;8.518;2023-06-19T11:10:23;47.28;;;44.58;;
10452;SDS011;5274;51.992;8.518;2023-06-19T11:12:50;43.20;;;40.80;;
10452;SDS011;5274;51.992;8.518;2023-06-19T11:15:16;47.00;;;44.30;;
10452;SDS011;5274;51.992;8.518;2023-06-19T11:17:42;46.63;;;43.97;;
10452;SDS011;5274;51.992;8.518;2023-06-19T11:20:12;47.40;;;44.00;;
10452;SDS011;5274;51.992;8.518;2023-06-19T11:22:41;47.90;;;45.10;;
10452;SDS011;5274;51.992;8.518;2023-06-19T11:25:08;49.03;;;46.13;;
10452;SDS011;5274;51.992;8.518;2023-06-19T11:27:36;48.10;;;45.17;;
10452;SDS011;5274;51.992;8.518;2023-06-19T11:30:04;55.75;;;52.15;;
10452;SDS011;5274;51.992;8.518;2023-06-19T11:32:32;53.95;;;50.25;;
10452;SDS011;5274;51.992;8.518;2023-06-19T11:35:07;54.38;;;51.03;;
10452;SDS011;5274;51.992;8.518;2023-06-19T11:37:34;53.30;;;49.95;;
10452;SDS011;5274;51.992;8.518;2023-06-19T11:40:00;52.92;;;49.72;;
10452;SDS011;5274;51.992;8.518;2023-06-19T11:42:29;53.17;;;49.58;;
10452;SDS011;5274;51.992;8.518;2023-06-19T11:47:21;52.97;;;49.47;;
10452;SDS011;5274;51.992;8.518;2023-06-19T11:49:47;54.58;;;51.08;;
10452;SDS011;5274;51.992;8.518;2023-06-19T11:52:14;51.97;;;48.67;;
10452;SDS011;5274;51.992;8.518;2023-06-19T11:54:40;52.70;;;49.42;;
10452;SDS011;5274;51.992;8.518;2023-06-19T11:57:06;51.70;;;48.50;;
10452;SDS011;5274;51.992;8.518;2023-06-19T11:59:32;50.75;;;47.58;;
10452;SDS011;5274;51.992;8.518;2023-06-19T12:01:58;51.20;;;48.05;;
10452;SDS011;5274;51.992;8.518;2023-06-19T12:04:24;49.17;;;46.08;;
10452;SDS011;5274;51.992;8.518;2023-06-19T12:06:51;51.65;;;48.47;;
10452;SDS011;5274;51.992;8.518;2023-06-19T12:09:17;51.38;;;47.70;;
10452;SDS011;5274;51.992;8.518;2023-06-19T12:11:43;49.80;;;46.80;;
10452;SDS011;5274;51.992;8.518;2023-06-19T12:14:09;50.25;;;47.13;;
10452;SDS011;5274;51.992;8.518;2023-06-19T12:16:35;54.55;;;50.78;;
10452;SDS011;5274;51.992;8.518;2023-06-19T12:19:01;55.90;;;52.30;;
10452;SDS011;5274;51.992;8.518;2023-06-19T12:21:27;55.88;;;52.33;;
10452;SDS011;5274;51.992;8.518;2023-06-19T12:23:53;41.13;;;38.72;;
10452;SDS011;5274;51.992;8.518;2023-06-19T12:26:19;44.35;;;41.75;;
10452;SDS011;5274;51.992;8.518;2023-06-19T12:28:46;46.90;;;44.08;;
10452;SDS011;5274;51.992;8.518;2023-06-19T12:31:12;43.55;;;40.95;;
10452;SDS011;5274;51.992;8.518;2023-06-19T12:33:38;46.28;;;43.03;;
10452;SDS011;5274;51.992;8.518;2023-06-19T12:36:09;43.25;;;40.63;;
10452;SDS011;5274;51.992;8.518;2023-06-19T12:38:37;41.47;;;38.75;;
10452;SDS011;5274;51.992;8.518;2023-06-19T12:41:03;44.40;;;41.92;;
10452;SDS011;5274;51.992;8.518;2023-06-19T12:43:29;41.95;;;39.55;;
10452;SDS011;5274;51.992;8.518;2023-06-19T12:45:58;42.53;;;40.28;;
10452;SDS011;5274;51.992;8.518;2023-06-19T12:48:25;42.30;;;39.97;;
10452;SDS011;5274;51.992;8.518;2023-06-19T12:50:51;45.55;;;42.85;;
10452;SDS011;5274;51.992;8.518;2023-06-19T12:53:17;43.28;;;40.90;;
10452;SDS011;5274;51.992;8.518;2023-06-19T12:55:43;43.67;;;41.28;;
10452;SDS011;5274;51.992;8.518;2023-06-19T12:58:09;44.67;;;42.13;;
10452;SDS011;5274;51.992;8.518;2023-06-19T13:00:36;46.10;;;43.50;;
10452;SDS011;5274;51.992;8.518;2023-06-19T13:03:02;49.63;;;46.75;;
10452;SDS011;5274;51.992;8.518;2023-06-19T13:05:29;46.78;;;44.13;;
10452;SDS011;5274;51.992;8.518;2023-06-19T13:07:55;50.63;;;47.65;;
10452;SDS011;5274;51.992;8.518;2023-06-19T13:10:20;48.78;;;45.55;;
10452;SDS011;5274;51.992;8.518;2023-06-19T13:12:46;46.22;;;43.53;;
10452;SDS011;5274;51.992;8.518;2023-06-19T13:15:12;43.20;;;40.70;;
10452;SDS011;5274;51.992;8.518;2023-06-19T13:17:38;45.63;;;42.95;;
10452;SDS011;5274;51.992;8.518;2023-06-19T13:20:04;42.90;;;40.33;;
10452;SDS011;5274;51.992;8.518;2023-06-19T13:22:31;48.17;;;45.47;;
10452;SDS011;5274;51.992;8.518;2023-06-19T13:24:57;45.30;;;42.70;;
10452;SDS011;5274;51.992;8.518;2023-06-19T13:27:23;45.03;;;42.58;;
10452;SDS011;5274;51.992;8.518;2023-06-19T13:29:49;44.40;;;41.95;;
10452;SDS011;5274;51.992;8.518;2023-06-19T13:32:15;44.92;;;42.42;;
10452;SDS011;5274;51.992;8.518;2023-06-19T13:34:41;53.13;;;49.90;;
10452;SDS011;5274;51.992;8.518;2023-06-19T13:37:07;47.50;;;44.67;;
10452;SDS011;5274;51.992;8.518;2023-06-19T13:39:34;38.83;;;36.53;;
10452;SDS011;5274;51.992;8.518;2023-06-19T13:42:00;49.40;;;46.30;;
10452;SDS011;5274;51.992;8.518;2023-06-19T13:44:26;52.15;;;49.05;;
10452;SDS011;5274;51.992;8.518;2023-06-19T13:46:52;50.22;;;47.25;;
10452;SDS011;5274;51.992;8.518;2023-06-19T13:49:19;51.92;;;48.50;;
10452;SDS011;5274;51.992;8.518;2023-06-19T13:51:45;50.67;;;47.67;;
10452;SDS011;5274;51.992;8.518;2023-06-19T13:54:11;44.95;;;42.42;;
10452;SDS011;5274;51.992;8.518;2023-06-19T13:56:38;49.10;;;46.15;;
10452;SDS011;5274;51.992;8.518;2023-06-19T13:59:04;46.45;;;43.85;;
10452;SDS011;5274;51.992;8.518;2023-06-19T14:01:30;47.75;;;44.97;;
10452;SDS011;5274;51.992;8.518;2023-06-19T14:03:57;48.50;;;45.70;;
10452;SDS011;5274;51.992;8.518;2023-06-19T14:06:25;46.42;;;43.72;;
10452;SDS011;5274;51.992;8.518;2023-06-19T14:08:51;51.35;;;48.20;;
10452;SDS011;5274;51.992;8.518;2023-06-19T14:11:18;50.10;;;46.88;;
10452;SDS011;5274;51.992;8.518;2023-06-19T14:13:44;45.67;;;42.78;;
10452;SDS011;5274;51.992;8.518;2023-06-19T14:16:10;44.97;;;42.38;;
10452;SDS011;5274;51.992;8.518;2023-06-19T14:18:36;44.50;;;42.00;;
10452;SDS011;5274;51.992;8.518;2023-06-19T14:21:02;47.00;;;44.20;;
10452;SDS011;5274;51.992;8.518;2023-06-19T14:23:28;46.60;;;43.80;;
10452;SDS011;5274;51.992;8.518;2023-06-19T14:25:54;45.78;;;42.90;;
10452;SDS011;5274;51.992;8.518;2023-06-19T14:28:20;42.97;;;40.40;;
10452;SDS011;5274;51.992;8.518;2023-06-19T14:30:46;47.13;;;44.42;;
10452;SDS011;5274;51.992;8.518;2023-06-19T14:33:12;45.55;;;42.80;;
10452;SDS011;5274;51.992;8.518;2023-06-19T14:35:42;44.90;;;42.30;;